Terminal Aerodrome Forecast
Issued by NWS

Home | Current Version | Previous Version | Graphics & Text | Print | Product List | Glossary On
Versions: 1 2 3 4 5 6 7 8 9 10 11 12 13 14 15 16 17 18 19 20 21 22 23 24 25 26
453
FTUS43 KGRB 220520
TAFCWA
TAF
KCWA 220520Z 2206/2306 25010G16KT P6SM VCSH OVC006
      TEMPO 2206/2210 3SM -RA BR BKN004
     FM221100 26009G14KT P6SM BKN010 OVC020
     FM221500 26010G18KT P6SM VCSH BKN020
     FM222300 26007KT P6SM SCT025 BKN040
     FM230500 27004KT P6SM BKN050=

USA.gov is the U.S. government's official web portal to all federal, state and local government web resources and services.